Strona główna
METAR-TAF:

METAR-TAF

Lotnisko :

Port lotniczy Førde

Førde, Norwegia

Szerokość geograficzna: 61-27N, Długość geograficzna: 005-52E, wysokość: 150 m

Aktualna obserwacja pogody

Raport powstał 3 godziny i 49 minut temu, godzina 08:20 UTC
Wiatr 4 kt od południowy zachód
Temperatura -1°C
Wilgotność 74%
Ciśnienie 998 hPa
Widzialność 10 km lub więcej
Mało chmury na wysokości 1500 ft
Rozproszone chmury na wysokości 3000 ft
Przerywane chmury na wysokości 4000 ft
przelotny w pobliże

METAR: ENBL 030820Z 22004KT 9999 VCSH FEW015 SCT030 BKN040 M01/M05 Q0998

czas: 14:09 (12:09 UTC)


TAF: brakujący

Obserwacja i prognoza pogody dla ponad 4000 lotnisk (raport METAR i TAF).

Dostępne stacje oznaczono żółtymi i czerwonymi punktami na mapie.

Najedź kursorem aby zobaczyć nazwę stacji.

Kliknij aby zobaczyć obserwacje i prognozy pogody.

Aby zmienić mapę: kliknij na zielony przycisk z czarnym krzyżykiem, aby powiększyć; na zielony przycisk z myślnikiem, aby pomniejszyć; na zielone strzałki, aby przejść do map sąsiednich.


METAR-TAF: